Time;durP1;ratioP1;P1;durP2;ratioP2;P2;SDS_P1;SDS_P2;PMS_P1;PMS_P2;Temp;Humidity;BMP_temperature;BMP_pressure;BME280_temperature;BME280_humidity;BME280_pressure;Samples;Min_cycle;Max_cycle;Signal;HPM_P1;HPM_P2
2022/12/21 00:03:57;;;;;;;36.40;18.92;;;;;;;3.43;43.54;94979.98;1831069;77;26208;-44
2022/12/21 00:06:25;;;;;;;20.45;12.90;;;;;;;3.47;43.25;94984.05;1791817;79;20999;-45
2022/12/21 00:08:54;;;;;;;25.43;14.50;;;;;;;3.53;43.20;94970.41;1800950;78;21450;-45
2022/12/21 00:11:23;;;;;;;33.38;15.88;;;;;;;3.60;42.58;94977.77;1805505;78;21517;-44
2022/12/21 00:13:51;;;;;;;38.80;20.92;;;;;;;3.67;44.31;94975.78;1818196;78;20954;-45
2022/12/21 00:16:20;;;;;;;85.22;40.03;;;;;;;3.70;47.16;94979.06;1810688;78;20997;-45
2022/12/21 00:18:47;;;;;;;83.78;43.90;;;;;;;3.70;48.25;94979.66;1801807;78;20990;-45
2022/12/21 00:21:20;;;;;;;58.13;31.25;;;;;;;3.73;49.13;94974.18;1799935;78;22137;-44
2022/12/21 00:23:48;;;;;;;48.48;26.93;;;;;;;3.71;48.67;94968.97;1818313;78;21041;-46
2022/12/21 00:26:20;;;;;;;44.73;24.82;;;;;;;3.70;48.18;94977.70;1789575;78;21037;-45
2022/12/21 00:28:49;;;;;;;36.93;23.80;;;;;;;3.71;47.67;94969.73;1805217;78;20965;-44
2022/12/21 00:31:19;;;;;;;33.78;21.00;;;;;;;3.76;47.52;94970.69;1810436;78;20978;-45
2022/12/21 00:33:46;;;;;;;32.23;19.40;;;;;;;3.81;47.88;94966.18;1797799;78;21137;-44
2022/12/21 00:36:15;;;;;;;37.23;24.27;;;;;;;3.84;48.06;94957.22;1802266;79;20989;-44
2022/12/21 00:38:42;;;;;;;45.78;30.12;;;;;;;3.89;47.82;94960.11;1800090;78;21127;-45
2022/12/21 00:41:11;;;;;;;43.08;26.57;;;;;;;3.93;47.23;94965.72;1813842;78;20992;-46
2022/12/21 00:43:40;;;;;;;43.55;22.93;;;;;;;3.97;47.04;94957.52;1803303;78;21027;-45
2022/12/21 00:46:07;;;;;;;35.13;20.57;;;;;;;3.99;47.07;94953.80;1817165;78;21795;-45
2022/12/21 00:48:35;;;;;;;45.67;25.72;;;;;;;3.99;47.50;94947.00;1799486;78;20986;-45
2022/12/21 00:51:08;;;;;;;49.83;25.32;;;;;;;4.05;47.58;94954.95;1770215;79;20970;-45
2022/12/21 00:53:36;;;;;;;31.00;17.80;;;;;;;4.06;48.26;94954.53;1722198;81;21833;-45
2022/12/21 00:56:05;;;;;;;52.98;22.75;;;;;;;4.07;48.89;94956.67;1722329;81;21180;-46
2022/12/21 00:58:34;;;;;;;59.15;24.67;;;;;;;4.06;49.27;94945.60;1725662;82;21199;-44
2022/12/21 01:01:08;;;;;;;44.45;19.95;;;;;;;4.07;49.36;94951.23;1731027;82;20944;-44
2022/12/21 01:03:35;;;;;;;32.48;17.25;;;;;;;4.08;49.25;94946.73;1663509;85;21578;-45
2022/12/21 01:06:03;;;;;;;23.52;13.90;;;;;;;4.10;49.37;94946.34;1671441;85;21475;-45
2022/12/21 01:08:30;;;;;;;17.80;10.50;;;;;;;4.09;49.82;94940.11;1682269;84;21121;-45
2022/12/21 01:10:58;;;;;;;16.25;10.38;;;;;;;4.09;49.49;94942.83;1663990;84;21162;-45
2022/12/21 01:13:26;;;;;;;13.98;9.38;;;;;;;4.10;49.30;94937.61;1670915;84;20982;-44
2022/12/21 01:15:53;;;;;;;36.63;19.55;;;;;;;4.13;50.03;94935.44;1641943;86;21073;-45
2022/12/21 01:18:20;;;;;;;34.38;18.48;;;;;;;4.12;50.37;94927.09;1637353;86;21127;-45
2022/12/21 01:20:49;;;;;;;23.38;16.32;;;;;;;4.09;50.61;94931.95;1606637;88;21121;-44
2022/12/21 01:23:18;;;;;;;20.12;12.10;;;;;;;4.02;50.50;94929.30;1652253;86;21235;-45
2022/12/21 01:25:46;;;;;;;25.32;14.47;;;;;;;4.08;49.65;94929.64;1641954;86;21027;-44
2022/12/21 01:28:13;;;;;;;56.33;28.52;;;;;;;4.16;49.00;94921.59;1636485;86;21050;-45
2022/12/21 01:30:41;;;;;;;76.75;34.18;;;;;;;4.21;48.42;94905.60;1679228;84;21026;-45
2022/12/21 01:33:17;;;;;;;75.45;36.68;;;;;;;4.17;48.37;94911.67;1673243;84;20989;-45
2022/12/21 01:35:45;;;;;;;79.32;35.10;;;;;;;4.10;48.20;94909.02;1619850;87;21798;-45
2022/12/21 01:38:12;;;;;;;71.72;35.35;;;;;;;4.11;49.00;94912.50;1618793;87;20985;-44
2022/12/21 01:40:39;;;;;;;77.20;36.50;;;;;;;4.09;49.11;94915.61;1632509;87;21093;-45
2022/12/21 01:43:21;;;;;;;56.83;29.30;;;;;;;4.09;49.57;94912.13;1605496;87;21665;-45
2022/12/21 01:45:51;;;;;;;59.70;29.98;;;;;;;4.14;49.69;94911.13;1603475;88;21064;-45
2022/12/21 01:48:19;;;;;;;56.10;28.87;;;;;;;4.17;49.82;94907.59;1614613;87;21734;-44
2022/12/21 01:50:59;;;;;;;57.53;29.48;;;;;;;4.16;49.95;94907.41;1648193;85;20981;-45
2022/12/21 01:53:38;;;;;;;65.50;32.38;;;;;;;4.14;50.87;94908.40;1632202;86;21184;-45
2022/12/21 01:56:08;;;;;;;61.10;30.68;;;;;;;4.11;51.66;94906.48;1671891;84;21065;-45
2022/12/21 01:58:35;;;;;;;68.57;33.73;;;;;;;4.13;51.68;94901.41;1684689;84;21171;-44
2022/12/21 02:01:03;;;;;;;72.40;35.60;;;;;;;4.18;51.64;94912.43;1674650;84;21365;-45
2022/12/21 02:03:34;;;;;;;87.22;41.92;;;;;;;4.20;51.05;94909.50;1637835;86;21046;-48
2022/12/21 06:04:38;;;;;;;123.65;59.90;;;;;;;2.01;63.91;94789.23;1811890;77;26035;-50
2022/12/21 06:07:05;;;;;;;203.75;113.92;;;;;;;2.03;64.06;94789.61;1806087;78;21035;-50
2022/12/21 06:09:32;;;;;;;161.25;80.57;;;;;;;2.10;63.74;94797.75;1802011;78;21169;-52
2022/12/21 06:12:00;;;;;;;170.82;87.17;;;;;;;2.14;63.54;94795.79;1782442;78;21053;-52
2022/12/21 06:14:32;;;;;;;158.70;80.57;;;;;;;2.18;63.30;94789.16;1779060;78;20975;-51
2022/12/21 06:17:01;;;;;;;147.60;74.62;;;;;;;2.29;63.24;94787.80;1784148;78;21100;-55
2022/12/21 06:19:32;;;;;;;148.22;79.82;;;;;;;2.42;62.81;94783.46;1777340;78;21097;-56
2022/12/21 06:22:00;;;;;;;154.18;79.50;;;;;;;2.45;62.93;94788.09;1783633;78;21563;-55
2022/12/21 06:24:30;;;;;;;152.70;80.62;;;;;;;2.51;62.49;94790.02;1776017;78;21047;-57
2022/12/21 06:26:57;;;;;;;169.02;82.25;;;;;;;2.54;62.46;94789.82;1778818;78;21177;-56
2022/12/21 06:29:24;;;;;;;178.68;85.95;;;;;;;2.58;62.41;94781.86;1772578;78;21098;-55
2022/12/21 06:31:51;;;;;;;140.37;76.47;;;;;;;2.57;62.49;94768.09;1752056;78;21223;-56
2022/12/21 06:34:18;;;;;;;142.30;70.65;;;;;;;2.56;63.49;94783.41;1764217;78;21219;-56
2022/12/21 06:36:47;;;;;;;137.45;70.72;;;;;;;2.55;63.87;94779.15;1757006;78;21060;-56
2022/12/21 06:39:27;;;;;;;161.03;87.57;;;;;;;2.52;64.28;94779.94;1778032;78;21024;-57
2022/12/21 06:41:55;;;;;;;177.75;84.28;;;;;;;2.50;64.55;94778.21;1782725;78;21033;-57
2022/12/21 06:44:26;;;;;;;170.92;88.60;;;;;;;2.51;65.13;94766.94;1782991;78;21068;-57
2022/12/21 06:46:54;;;;;;;187.77;96.65;;;;;;;2.53;65.17;94774.70;1779905;78;21133;-56
2022/12/21 06:49:23;;;;;;;236.82;113.37;;;;;;;2.60;65.42;94766.51;1781844;78;21042;-49
2022/12/21 06:51:51;;;;;;;274.90;129.78;;;;;;;2.68;64.95;94770.75;1803503;78;20987;-55
2022/12/21 06:54:31;;;;;;;241.30;120.53;;;;;;;2.78;64.65;94773.98;1789613;78;21040;-53
2022/12/21 06:56:59;;;;;;;470.10;224.92;;;;;;;2.82;64.14;94774.16;1769924;78;21093;-56
2022/12/21 06:59:26;;;;;;;398.40;191.73;;;;;;;2.87;63.29;94777.05;1788447;78;21714;-56
2022/12/21 07:01:52;;;;;;;316.68;152.62;;;;;;;2.93;62.53;94768.66;1782720;78;21105;-57
2022/12/21 07:04:20;;;;;;;302.62;148.40;;;;;;;2.96;62.62;94774.64;1776340;78;21053;-57
2022/12/21 07:06:48;;;;;;;304.65;148.40;;;;;;;3.03;61.79;94767.23;1735289;81;21107;-60
2022/12/21 07:09:15;;;;;;;245.25;118.80;;;;;;;3.13;61.23;94769.11;1726669;80;21041;-57
2022/12/21 07:11:42;;;;;;;199.32;103.87;;;;;;;3.17;61.23;94767.13;1707306;81;21293;-52
2022/12/21 07:14:09;;;;;;;203.52;105.80;;;;;;;3.17;61.91;94770.42;1781566;80;21276;-56
2022/12/21 07:16:36;;;;;;;264.93;131.95;;;;;;;3.12;62.20;94772.22;1725099;81;21328;-57
2022/12/21 07:19:03;;;;;;;241.53;121.30;;;;;;;3.08;62.45;94769.52;1714325;81;22048;-59
2022/12/21 07:21:30;;;;;;;366.33;181.12;;;;;;;3.07;62.74;94774.00;1717565;81;21163;-59
2022/12/21 07:23:57;;;;;;;310.98;160.95;;;;;;;3.07;62.60;94767.21;1740192;79;21480;-57
2022/12/21 07:26:25;;;;;;;306.93;151.15;;;;;;;3.08;62.28;94766.04;1731757;80;21187;-60
2022/12/21 07:28:54;;;;;;;314.72;157.20;;;;;;;3.10;61.76;94763.69;1736168;81;21079;-57
2022/12/21 07:31:23;;;;;;;306.70;159.07;;;;;;;3.13;61.60;94768.33;1743765;80;21140;-59
2022/12/21 07:33:50;;;;;;;311.48;153.27;;;;;;;3.20;61.01;94768.30;1740129;80;21190;-58
2022/12/21 07:36:19;;;;;;;325.55;163.00;;;;;;;3.29;60.70;94769.39;1701906;82;21493;-53
2022/12/21 07:38:47;;;;;;;300.65;155.43;;;;;;;3.41;60.52;94764.05;1650518;84;21657;-59
2022/12/21 07:41:15;;;;;;;298.00;150.50;;;;;;;3.48;60.82;94764.16;1645786;83;21112;-55
2022/12/21 07:43:43;;;;;;;298.70;152.00;;;;;;;3.54;60.90;94755.75;1670981;84;21104;-57
2022/12/21 07:46:26;;;;;;;297.57;157.57;;;;;;;3.60;61.21;94765.05;1760642;79;21523;-60
2022/12/21 07:48:54;;;;;;;288.32;151.70;;;;;;;3.64;61.14;94763.05;1759404;78;21166;-60
2022/12/21 07:51:23;;;;;;;298.48;155.18;;;;;;;3.70;61.05;94762.80;1788569;79;21068;-60
2022/12/21 07:53:50;;;;;;;369.57;199.87;;;;;;;3.73;60.98;94760.62;1773478;79;21052;-58
2022/12/21 07:56:18;;;;;;;361.43;187.03;;;;;;;3.75;60.55;94748.78;1754229;79;21050;-57
2022/12/21 07:58:45;;;;;;;446.98;227.72;;;;;;;3.77;60.75;94744.28;1785129;78;21551;-55
2022/12/21 08:01:14;;;;;;;451.15;233.97;;;;;;;3.79;61.18;94746.79;1791577;78;21597;-57
2022/12/21 08:03:42;;;;;;;453.68;222.17;;;;;;;3.90;61.23;94743.36;1781952;78;21052;-56
2022/12/21 08:06:09;;;;;;;461.55;240.30;;;;;;;3.92;61.51;94743.75;1772433;79;21115;-57
2022/12/21 08:08:38;;;;;;;438.35;228.75;;;;;;;3.99;61.57;94745.03;1788761;79;21088;-57
2022/12/21 08:11:07;;;;;;;462.23;240.47;;;;;;;4.07;61.54;94731.52;1760874;78;21052;-62
2022/12/21 08:26:42;;;;;;;376.00;196.72;;;;;;;4.04;59.49;94711.92;1812746;77;26420;-49
2022/12/21 08:29:13;;;;;;;399.65;205.20;;;;;;;3.97;59.30;94708.50;1758185;79;21082;-50
2022/12/21 08:31:40;;;;;;;408.92;210.25;;;;;;;4.01;59.30;94701.06;1779001;78;22231;-55
2022/12/21 08:34:08;;;;;;;375.50;191.68;;;;;;;4.04;58.49;94687.42;1789097;77;21554;-50
2022/12/21 08:36:38;;;;;;;307.50;144.75;;;;;;;4.13;57.92;94687.72;1772989;78;21064;-50
2022/12/21 08:39:05;;;;;;;281.35;142.47;;;;;;;4.16;56.81;94688.26;1770268;78;21194;-50
2022/12/21 08:41:32;;;;;;;264.00;136.45;;;;;;;4.16;56.16;94699.73;1772763;78;21692;-49
2022/12/21 08:43:59;;;;;;;298.77;148.07;;;;;;;4.18;55.71;94698.15;1779515;79;21258;-49
2022/12/21 08:46:27;;;;;;;311.10;154.87;;;;;;;4.26;55.80;94705.04;1779632;78;21090;-50
2022/12/21 08:49:00;;;;;;;265.68;142.90;;;;;;;4.32;55.79;94696.63;1777198;79;21133;-51
2022/12/21 08:51:28;;;;;;;254.70;139.18;;;;;;;4.39;55.18;94691.08;1737086;80;21052;-54
2022/12/21 08:53:57;;;;;;;187.32;104.15;;;;;;;4.44;54.57;94681.69;1798532;77;20962;-52
2022/12/21 08:56:25;;;;;;;168.65;96.45;;;;;;;4.55;53.65;94683.08;1789227;78;21266;-49
2022/12/21 08:58:52;;;;;;;178.93;94.70;;;;;;;4.64;52.82;94675.77;1765215;78;21109;-50
2022/12/21 09:01:21;;;;;;;172.13;94.45;;;;;;;4.70;52.04;94675.47;1744529;80;21052;-50
2022/12/21 09:03:49;;;;;;;168.28;95.92;;;;;;;4.79;51.91;94681.95;1731109;81;21195;-50
2022/12/21 09:06:32;;;;;;;191.98;106.58;;;;;;;4.93;52.01;94674.94;1729744;80;21615;-51
2022/12/21 09:09:00;;;;;;;192.22;101.78;;;;;;;5.08;52.08;94673.53;1662607;83;21169;-48
2022/12/21 09:11:27;;;;;;;183.20;106.03;;;;;;;5.24;51.63;94658.06;1694012;83;21115;-50
2022/12/21 09:13:55;;;;;;;240.07;126.25;;;;;;;5.37;51.65;94666.41;1656829;83;21175;-49
2022/12/21 09:16:24;;;;;;;304.98;148.55;;;;;;;5.42;51.71;94662.62;1638443;84;21586;-50
2022/12/21 09:18:51;;;;;;;267.68;140.90;;;;;;;5.50;51.66;94662.70;1709032;81;21338;-47
2022/12/21 09:21:21;;;;;;;237.02;124.35;;;;;;;5.60;51.38;94660.97;1688443;83;21433;-48
2022/12/21 09:23:47;;;;;;;236.68;124.47;;;;;;;5.79;51.56;94655.55;1668392;83;21019;-48
2022/12/21 09:26:15;;;;;;;246.90;121.70;;;;;;;6.04;51.64;94646.30;1653666;84;21106;-55
2022/12/21 09:28:42;;;;;;;225.45;116.12;;;;;;;6.16;50.92;94633.36;1615022;86;21081;-52
2022/12/21 09:31:13;;;;;;;178.10;96.37;;;;;;;6.26;50.29;94635.13;1663254;85;21175;-51
2022/12/21 09:33:40;;;;;;;174.70;85.53;;;;;;;6.35;49.83;94636.67;1687215;83;21296;-53
2022/12/21 09:36:09;;;;;;;138.25;73.12;;;;;;;6.40;48.53;94628.58;1653425;86;21158;-51
2022/12/21 09:38:36;;;;;;;132.22;71.53;;;;;;;6.45;47.60;94628.08;1654832;84;21573;-49
2022/12/21 09:41:23;;;;;;;155.67;84.67;;;;;;;6.50;47.06;94635.18;1623793;86;21663;-48
2022/12/21 09:44:14;;;;;;;162.70;90.77;;;;;;;6.59;46.97;94627.19;1667623;82;21094;-49
2022/12/21 09:46:42;;;;;;;165.50;87.67;;;;;;;6.66;47.31;94627.63;1669966;83;21281;-56
2022/12/21 09:49:22;;;;;;;167.50;90.20;;;;;;;6.66;46.33;94619.43;1691939;83;21128;-51
2022/12/21 09:51:53;;;;;;;153.02;82.47;;;;;;;6.67;45.40;94619.60;1664086;80;21041;-51
2022/12/21 09:54:26;;;;;;;146.28;72.55;;;;;;;6.71;45.19;94610.11;1676569;84;21075;-50
2022/12/21 09:56:54;;;;;;;161.40;83.12;;;;;;;6.78;44.67;94606.44;1591002;88;21659;-51
2022/12/21 09:59:24;;;;;;;144.57;82.37;;;;;;;6.80;44.85;94602.69;1571279;90;21288;-50
2022/12/21 10:02:21;;;;;;;167.20;93.25;;;;;;;6.82;44.87;94601.66;1601073;87;21204;-52
2022/12/21 10:05:30;;;;;;;152.80;91.82;;;;;;;6.81;45.39;94601.48;1608654;87;21516;-54
2022/12/21 10:08:31;;;;;;;154.63;85.85;;;;;;;6.72;45.64;94599.95;1606965;87;21183;-54
2022/12/21 10:11:50;;;;;;;158.95;82.97;;;;;;;6.66;46.01;94596.20;1558193;89;21111;-51
2022/12/21 10:14:57;;;;;;;157.85;83.75;;;;;;;6.67;45.91;94585.44;1550624;89;21329;-58
2022/12/21 10:17:41;;;;;;;172.85;93.92;;;;;;;6.76;45.23;94581.50;1571062;89;21757;-49
2022/12/21 10:20:38;;;;;;;169.20;90.10;;;;;;;6.84;45.26;94563.72;1594913;87;21124;-50
2022/12/21 10:23:20;;;;;;;167.57;94.15;;;;;;;6.90;45.22;94577.07;1591374;87;21614;-53
2022/12/21 10:25:50;;;;;;;180.22;109.37;;;;;;;6.99;45.37;94567.66;1557754;91;21696;-49
2022/12/21 10:28:33;;;;;;;186.85;108.10;;;;;;;7.04;45.08;94564.42;1567915;89;21284;-58
2022/12/21 10:31:07;;;;;;;229.82;127.35;;;;;;;7.09;45.60;94559.97;1551559;91;21168;-54
2022/12/21 10:33:41;;;;;;;199.45;103.83;;;;;;;7.19;45.57;94551.31;1509561;91;21099;-49
2022/12/21 10:36:18;;;;;;;204.18;103.62;;;;;;;7.24;44.63;94545.31;1511228;92;21216;-49
2022/12/21 10:38:45;;;;;;;191.75;100.82;;;;;;;7.24;44.41;94544.73;1550740;91;21585;-51
2022/12/21 10:41:17;;;;;;;213.30;110.65;;;;;;;7.25;43.96;94539.42;1513292;91;21198;-49
2022/12/21 10:43:48;;;;;;;194.17;101.47;;;;;;;7.29;43.80;94538.73;1549921;90;21089;-51
2022/12/21 10:46:18;;;;;;;194.57;102.97;;;;;;;7.43;43.70;94536.21;1516162;91;21117;-55
2022/12/21 10:48:46;;;;;;;204.75;106.63;;;;;;;7.77;43.19;94530.38;1543208;91;21064;-53
2022/12/21 10:51:41;;;;;;;227.15;113.57;;;;;;;8.32;42.34;94527.81;1555467;89;21262;-54
2022/12/21 10:54:13;;;;;;;212.57;117.60;;;;;;;8.61;41.62;94524.38;1547918;90;21386;-49
2022/12/21 10:56:46;;;;;;;211.77;115.62;;;;;;;8.64;41.20;94528.97;1571409;90;21107;-51
2022/12/21 10:59:24;;;;;;;210.25;117.40;;;;;;;8.71;41.23;94529.52;1575963;87;21137;-61
2022/12/21 11:01:53;;;;;;;203.18;118.40;;;;;;;8.82;41.47;94524.44;1671933;83;21128;-50
2022/12/21 11:04:27;;;;;;;233.55;123.95;;;;;;;8.92;41.15;94515.11;1719554;83;21104;-49
2022/12/21 11:07:08;;;;;;;195.15;119.53;;;;;;;9.08;41.59;94514.98;1707233;83;21157;-51
2022/12/21 11:09:39;;;;;;;189.50;115.67;;;;;;;9.26;41.51;94515.15;1698828;83;21083;-51
2022/12/21 11:12:20;;;;;;;220.05;123.97;;;;;;;9.38;41.40;94512.95;1699491;83;21862;-51
2022/12/21 11:14:48;;;;;;;217.70;113.80;;;;;;;9.42;41.03;94512.99;1652883;86;21121;-48
2022/12/21 11:17:25;;;;;;;195.45;111.05;;;;;;;9.45;41.41;94510.73;1654450;86;21632;-53
2022/12/21 11:20:08;;;;;;;176.07;104.23;;;;;;;9.40;41.43;94509.92;1582925;89;22143;-50
2022/12/21 11:22:43;;;;;;;178.05;103.35;;;;;;;9.37;41.16;94501.22;1588171;88;21202;-49
2022/12/21 11:25:24;;;;;;;176.87;102.53;;;;;;;9.37;40.87;94503.18;1546347;90;21106;-50
2022/12/21 11:28:00;;;;;;;164.07;97.25;;;;;;;9.38;40.57;94496.47;1550557;92;21167;-47
2022/12/21 11:30:33;;;;;;;167.60;102.15;;;;;;;9.41;41.01;94498.36;1551168;91;21139;-50
2022/12/21 11:33:00;;;;;;;190.00;115.55;;;;;;;9.42;41.02;94484.78;1550829;91;21354;-49
2022/12/21 11:35:30;;;;;;;181.30;112.32;;;;;;;9.40;41.34;94483.84;1543342;91;21191;-48
2022/12/21 11:38:04;;;;;;;163.37;102.20;;;;;;;9.38;41.54;94483.53;1529246;92;21112;-50
2022/12/21 11:40:32;;;;;;;167.00;96.75;;;;;;;9.41;40.80;94491.49;1524000;92;21095;-51
2022/12/21 11:43:05;;;;;;;175.78;94.52;;;;;;;9.46;40.57;94488.92;1529815;91;21075;-50
2022/12/21 11:46:11;;;;;;;212.42;94.65;;;;;;;9.45;40.00;94491.51;1499707;94;23375;-48
2022/12/21 11:49:04;;;;;;;160.32;86.67;;;;;;;9.41;39.77;94487.38;1539885;91;21244;-49
2022/12/21 11:52:14;;;;;;;150.53;87.70;;;;;;;9.37;38.98;94486.70;1525402;90;21222;-49
2022/12/21 11:55:15;;;;;;;155.03;90.47;;;;;;;9.33;38.52;94481.36;1543022;89;21279;-48
2022/12/21 11:58:01;;;;;;;166.88;93.65;;;;;;;9.28;38.45;94488.77;1557636;90;21219;-49
2022/12/21 12:00:47;;;;;;;154.47;84.40;;;;;;;9.24;38.11;94481.89;1564510;87;21739;-51
2022/12/21 12:03:31;;;;;;;199.42;88.05;;;;;;;9.20;37.73;94483.97;1542142;90;21158;-48
2022/12/21 12:06:41;;;;;;;187.12;104.83;;;;;;;9.16;37.32;94479.21;1557785;91;21202;-49
2022/12/21 12:09:47;;;;;;;163.52;89.55;;;;;;;9.11;38.12;94469.56;1521977;92;21652;-52
2022/12/21 12:12:28;;;;;;;181.70;91.60;;;;;;;9.10;37.47;94476.88;1535480;91;21147;-48
2022/12/21 12:15:13;;;;;;;190.70;98.75;;;;;;;9.07;36.93;94468.17;1508745;92;21206;-53
2022/12/21 12:18:09;;;;;;;168.65;92.50;;;;;;;9.03;37.33;94462.80;1502603;94;22170;-57
2022/12/21 12:21:00;;;;;;;180.27;96.32;;;;;;;9.04;37.01;94460.83;1505825;94;21102;-47
2022/12/21 12:23:57;;;;;;;199.62;103.20;;;;;;;9.04;37.05;94448.48;1494510;94;21245;-49
2022/12/21 12:26:32;;;;;;;236.55;102.70;;;;;;;9.02;37.51;94457.14;1489027;94;21295;-50
2022/12/21 12:29:29;;;;;;;231.53;109.78;;;;;;;9.03;38.13;94455.18;1530988;91;21204;-47
2022/12/21 12:32:25;;;;;;;326.25;160.03;;;;;;;8.97;38.46;94451.45;1566747;88;21084;-51
2022/12/21 12:35:01;;;;;;;298.10;145.30;;;;;;;8.89;40.02;94455.66;1590577;86;21073;-48
2022/12/21 12:37:49;;;;;;;253.45;130.20;;;;;;;8.75;41.98;94457.49;1649731;84;21177;-48
2022/12/21 12:40:44;;;;;;;240.18;127.58;;;;;;;8.84;41.91;94450.70;1661326;83;21033;-48
2022/12/21 12:43:42;;;;;;;241.55;128.78;;;;;;;9.69;41.44;94447.89;1691433;82;21921;-51
2022/12/21 12:46:40;;;;;;;235.90;122.20;;;;;;;10.67;40.06;94451.75;1687028;82;21722;-48
2022/12/21 12:49:18;;;;;;;230.00;121.30;;;;;;;10.94;38.24;94453.95;1696295;82;21510;-45
2022/12/21 12:52:29;;;;;;;217.68;121.77;;;;;;;11.29;37.41;94456.59;1702363;81;21143;-48
2022/12/21 12:55:23;;;;;;;222.58;129.60;;;;;;;11.87;36.46;94451.69;1752352;78;21001;-50
2022/12/21 12:58:05;;;;;;;237.42;133.65;;;;;;;12.37;34.99;94450.16;1784372;79;21782;-48
2022/12/21 13:00:56;;;;;;;231.93;132.95;;;;;;;12.87;34.46;94451.48;1783886;79;21519;-46
2022/12/21 13:03:59;;;;;;;266.73;142.57;;;;;;;13.58;34.88;94441.17;1724835;80;21152;-45
2022/12/21 13:07:00;;;;;;;300.15;161.05;;;;;;;14.27;34.93;94449.16;1779946;79;21060;-45
2022/12/21 13:09:54;;;;;;;271.32;142.72;;;;;;;14.81;35.25;94444.36;1778726;79;21021;-44
2022/12/21 13:12:27;;;;;;;293.50;147.93;;;;;;;14.97;34.28;94440.44;1634200;86;21026;-48
2022/12/21 13:15:16;;;;;;;249.30;141.53;;;;;;;14.75;34.13;94435.97;1613552;87;21152;-45
2022/12/21 13:18:04;;;;;;;272.65;148.97;;;;;;;14.27;34.80;94438.09;1673230;84;21033;-47
2022/12/21 13:20:33;;;;;;;236.00;107.50;;;;;;;13.46;35.95;94434.67;1666626;85;21081;-49
2022/12/21 13:23:42;;;;;;;160.03;83.30;;;;;;;12.70;36.47;94431.78;1656500;85;21143;-44
2022/12/21 13:26:20;;;;;;;228.98;127.27;;;;;;;12.05;37.16;94437.11;1654114;84;21301;-48
2022/12/21 13:29:19;;;;;;;234.72;134.10;;;;;;;11.30;38.81;94434.71;1664685;84;20985;-44
2022/12/21 13:31:55;;;;;;;232.87;140.82;;;;;;;10.75;40.20;94446.88;1654167;85;21113;-45
2022/12/21 13:34:27;;;;;;;236.70;131.12;;;;;;;10.24;40.36;94438.16;1627199;86;21586;-46
2022/12/21 13:36:54;;;;;;;226.02;123.95;;;;;;;9.84;40.91;94441.42;1576104;88;21213;-43
2022/12/21 13:39:31;;;;;;;182.00;106.40;;;;;;;9.46;41.40;94438.75;1570644;88;22188;-44
2022/12/21 13:42:07;;;;;;;165.50;75.85;;;;;;;9.16;41.91;94449.02;1528786;91;21589;-48
2022/12/21 13:44:46;;;;;;;157.55;81.37;;;;;;;8.82;43.74;94442.16;1540369;91;21367;-45
2022/12/21 13:47:14;;;;;;;251.62;135.20;;;;;;;8.47;44.95;94437.84;1521922;92;21183;-45
2022/12/21 13:50:20;;;;;;;205.32;117.40;;;;;;;8.17;45.65;94437.03;1519524;92;21103;-45
2022/12/21 13:53:27;;;;;;;214.08;122.85;;;;;;;7.88;46.08;94432.24;1550695;90;21268;-46
2022/12/21 13:56:14;;;;;;;209.37;114.42;;;;;;;7.59;46.51;94437.03;1551020;90;21164;-46
2022/12/21 13:58:47;;;;;;;250.80;132.45;;;;;;;7.29;46.71;94429.29;1552270;91;21136;-44
2022/12/21 14:01:25;;;;;;;254.25;128.47;;;;;;;7.12;47.21;94436.02;1535296;91;21134;-43
2022/12/21 14:04:22;;;;;;;250.03;120.00;;;;;;;7.00;47.99;94435.19;1549992;90;21715;-46
2022/12/21 14:07:10;;;;;;;215.92;114.20;;;;;;;6.86;48.44;94434.22;1547417;91;21831;-45
2022/12/21 14:10:04;;;;;;;217.77;111.70;;;;;;;6.66;49.18;94429.48;1555605;90;21609;-44
2022/12/21 14:12:47;;;;;;;215.28;110.28;;;;;;;6.48;49.57;94438.10;1538028;90;21155;-44
2022/12/21 14:15:32;;;;;;;246.20;120.30;;;;;;;6.32;49.97;94435.98;1525625;92;21176;-45
2022/12/21 14:17:59;;;;;;;319.45;187.47;;;;;;;6.08;50.75;94439.47;1552120;90;21656;-43
2022/12/21 14:20:34;;;;;;;280.80;153.97;;;;;;;5.87;51.50;94435.88;1570183;89;21315;-45
2022/12/21 14:23:06;;;;;;;356.45;197.50;;;;;;;5.64;52.00;94433.82;1578360;90;21127;-43
2022/12/21 14:25:38;;;;;;;321.73;166.40;;;;;;;5.41;52.60;94440.76;1612825;86;21113;-45
2022/12/21 14:28:25;;;;;;;256.65;139.85;;;;;;;5.25;53.32;94433.27;1628517;87;21030;-45
2022/12/21 14:31:06;;;;;;;221.65;115.70;;;;;;;5.14;53.99;94433.31;1589864;87;21596;-45
2022/12/21 14:33:50;;;;;;;198.30;113.08;;;;;;;5.02;54.40;94439.98;1607435;86;22333;-46
2022/12/21 14:36:28;;;;;;;214.02;115.08;;;;;;;4.93;54.33;94448.72;1630312;85;21102;-43
2022/12/21 14:39:13;;;;;;;317.70;159.70;;;;;;;4.85;54.30;94447.33;1636173;86;21162;-43
2022/12/21 14:41:41;;;;;;;298.25;152.17;;;;;;;4.73;54.83;94450.65;1746111;81;21566;-44
2022/12/21 14:44:23;;;;;;;200.78;89.90;;;;;;;4.66;55.29;94453.52;1739830;81;21040;-45
2022/12/21 14:47:07;;;;;;;177.07;87.72;;;;;;;4.61;56.01;94455.33;1756269;81;21204;-44
2022/12/21 14:49:40;;;;;;;220.25;108.55;;;;;;;4.40;57.16;94457.06;1671926;83;21092;-44
2022/12/21 14:52:19;;;;;;;;;;;;;;;4.26;57.30;94458.64;1679813;83;21043;-44
2022/12/21 14:54:49;;;;;;;346.68;168.93;;;;;;;4.11;57.42;94456.58;1676497;82;20710;-44
2022/12/21 14:57:18;;;;;;;363.10;184.63;;;;;;;3.94;57.55;94465.20;1649475;85;21044;-48
2022/12/21 14:59:53;;;;;;;403.38;215.82;;;;;;;3.83;57.36;94459.13;1639406;86;21235;-43
2022/12/21 15:02:51;;;;;;;428.02;224.02;;;;;;;3.78;57.35;94463.68;1647990;84;21108;-45
2022/12/21 15:05:28;;;;;;;372.42;203.07;;;;;;;3.78;57.49;94459.60;1608778;86;21131;-44
2022/12/21 15:08:06;;;;;;;368.20;192.82;;;;;;;3.73;57.27;94465.48;1568341;89;21633;-48
2022/12/21 15:10:45;;;;;;;343.40;170.30;;;;;;;3.66;57.38;94456.67;1572416;89;21566;-45
2022/12/21 15:13:31;;;;;;;287.23;151.20;;;;;;;3.61;58.23;94459.83;1474475;96;21235;-48
2022/12/21 15:16:16;;;;;;;337.15;175.87;;;;;;;3.56;58.86;94457.00;1480681;95;21008;-45
2022/12/21 15:18:58;;;;;;;317.93;158.35;;;;;;;3.50;59.28;94472.82;1473337;94;21139;-45
2022/12/21 15:21:42;;;;;;;338.37;179.60;;;;;;;3.49;59.24;94467.95;1458049;98;21109;-46
2022/12/21 15:24:31;;;;;;;338.70;175.47;;;;;;;3.46;59.63;94469.95;1454336;95;21702;-45
2022/12/21 15:27:31;;;;;;;328.95;169.65;;;;;;;3.42;59.36;94469.99;1495806;92;21277;-43
2022/12/21 15:30:24;;;;;;;272.52;125.53;;;;;;;3.33;58.71;94475.75;1481372;95;21206;-44
2022/12/21 15:32:56;;;;;;;306.90;141.32;;;;;;;3.23;58.99;94473.95;1493936;93;21189;-44
2022/12/21 15:35:37;;;;;;;295.42;143.65;;;;;;;3.04;59.70;94463.69;1374403;102;21463;-47
2022/12/21 15:38:36;;;;;;;297.93;147.00;;;;;;;2.93;60.67;94469.25;1378726;102;21191;-42
2022/12/21 15:41:05;;;;;;;296.55;150.03;;;;;;;2.90;60.99;94470.64;1378424;103;21167;-43
2022/12/21 15:43:43;;;;;;;421.85;224.85;;;;;;;2.91;61.09;94468.86;1356676;103;21177;-44
2022/12/21 15:46:32;;;;;;;376.75;190.00;;;;;;;2.82;61.61;94465.08;1402477;101;21583;-45
2022/12/21 15:49:19;;;;;;;384.00;196.07;;;;;;;2.76;61.68;94463.99;1408651;100;21574;-43
2022/12/21 15:51:47;;;;;;;372.90;190.03;;;;;;;2.74;61.56;94464.41;1410874;99;21110;-42
2022/12/21 15:54:18;;;;;;;374.15;193.22;;;;;;;2.71;61.83;94469.27;1414901;100;21172;-43
2022/12/21 15:56:52;;;;;;;373.35;191.05;;;;;;;2.72;62.08;94469.45;1416991;98;21298;-45
2022/12/21 15:59:22;;;;;;;355.20;183.78;;;;;;;2.74;62.09;94464.41;1427560;99;21414;-42
2022/12/21 16:01:57;;;;;;;315.48;167.32;;;;;;;2.76;62.19;94458.56;1404869;100;21143;-46
2022/12/21 16:04:26;;;;;;;425.57;215.62;;;;;;;2.72;62.05;94465.98;1379535;103;21104;-42
2022/12/21 18:09:51;;;;;;;516.30;285.85;;;;;;;0.94;73.11;94427.99;1797407;77;25974;-45
2022/12/21 18:12:18;;;;;;;547.90;295.00;;;;;;;0.93;73.15;94435.92;1798313;78;21568;-45